createdAt,value
2018-11-11T00:00:17.319Z,68.40
2018-11-11T00:02:46.519Z,76.30
2018-11-11T00:05:15.701Z,68.73
2018-11-11T00:07:44.894Z,62.43
2018-11-11T00:10:13.807Z,67.93
2018-11-11T00:12:42.731Z,61.73
2018-11-11T00:15:14.479Z,64.00
2018-11-11T00:17:44.439Z,70.57
2018-11-11T00:20:13.869Z,67.40
2018-11-11T00:22:43.085Z,74.10
2018-11-11T00:25:11.980Z,68.57
2018-11-11T00:27:41.248Z,72.80
2018-11-11T00:30:15.441Z,65.60
2018-11-11T00:32:44.654Z,70.17
2018-11-11T00:35:13.590Z,67.03
2018-11-11T00:37:42.919Z,68.67
2018-11-11T00:40:13.159Z,78.10
2018-11-11T00:42:42.459Z,71.57
2018-11-11T00:45:12.012Z,69.97
2018-11-11T00:47:41.136Z,67.17
2018-11-11T00:50:10.742Z,62.27
2018-11-11T00:52:39.920Z,71.07
2018-11-11T00:55:12.139Z,65.43
2018-11-11T00:57:41.341Z,64.80
2018-11-11T01:00:12.826Z,72.30
2018-11-11T01:02:42.814Z,70.63
2018-11-11T01:05:12.194Z,66.07
2018-11-11T01:07:42.373Z,62.03
2018-11-11T01:10:12.846Z,63.47
2018-11-11T01:12:42.806Z,71.63
2018-11-11T01:15:14.044Z,68.83
2018-11-11T01:17:43.321Z,65.87
2018-11-11T01:20:14.569Z,69.00
2018-11-11T01:22:44.506Z,65.17
2018-11-11T01:25:16.453Z,71.70
2018-11-11T01:27:45.986Z,66.20
2018-11-11T01:30:17.536Z,64.80
2018-11-11T01:32:46.568Z,69.50
2018-11-11T01:35:17.133Z,72.40
2018-11-11T01:37:46.525Z,65.93
2018-11-11T01:40:16.110Z,66.30
2018-11-11T01:42:45.368Z,57.17
2018-11-11T01:45:16.123Z,65.60
2018-11-11T01:47:45.905Z,59.27
2018-11-11T01:50:15.253Z,65.97
2018-11-11T01:52:44.695Z,68.20
2018-11-11T01:55:14.783Z,68.00
2018-11-11T01:57:43.747Z,66.57
2018-11-11T02:00:16.570Z,64.23
2018-11-11T02:02:47.063Z,66.13
2018-11-11T02:05:17.647Z,63.20
2018-11-11T02:07:48.645Z,68.57
2018-11-11T02:10:17.963Z,71.50
2018-11-11T02:12:47.194Z,71.70
2018-11-11T02:15:17.354Z,67.73
2018-11-11T02:17:47.608Z,67.57
2018-11-11T02:20:19.570Z,65.33
2018-11-11T02:22:50.274Z,65.77
2018-11-11T02:25:19.943Z,61.93
2018-11-11T02:27:49.688Z,64.47
2018-11-11T02:30:20.359Z,64.53
2018-11-11T02:32:49.568Z,63.77
2018-11-11T02:35:18.968Z,67.00
2018-11-11T02:37:48.708Z,66.13
2018-11-11T02:40:19.524Z,69.60
2018-11-11T02:42:50.941Z,67.70
2018-11-11T02:45:20.495Z,67.50
2018-11-11T02:47:49.378Z,71.23
2018-11-11T02:50:19.461Z,64.00
2018-11-11T02:52:49.750Z,65.97
2018-11-11T02:55:19.592Z,54.97
2018-11-11T02:57:49.884Z,61.03
2018-11-11T03:00:20.656Z,48.97
2018-11-11T03:02:50.594Z,65.30
2018-11-11T03:05:20.026Z,68.33
2018-11-11T03:07:50.940Z,66.33
2018-11-11T03:10:20.360Z,56.93
2018-11-11T03:12:50.264Z,68.07
2018-11-11T03:15:21.595Z,70.63
2018-11-11T03:17:50.814Z,65.20
2018-11-11T03:20:20.462Z,63.53
2018-11-11T03:22:50.389Z,66.67
2018-11-11T03:25:19.327Z,64.13
2018-11-11T03:27:48.904Z,65.00
2018-11-11T03:30:18.985Z,63.30
2018-11-11T03:32:48.317Z,50.80
2018-11-11T03:35:17.850Z,64.03
2018-11-11T03:37:47.117Z,61.77
2018-11-11T03:40:18.183Z,59.20
2018-11-11T03:42:47.791Z,63.80
2018-11-11T03:45:18.697Z,62.40
2018-11-11T03:47:51.993Z,57.20
2018-11-11T03:50:21.667Z,61.10
2018-11-11T03:52:51.193Z,59.20
2018-11-11T03:55:20.785Z,62.07
2018-11-11T03:57:50.132Z,67.43
2018-11-11T04:00:21.882Z,65.20
2018-11-11T04:02:50.813Z,72.70
2018-11-11T04:05:23.632Z,74.53
2018-11-11T04:07:52.522Z,70.93
2018-11-11T04:10:22.137Z,71.20
2018-11-11T04:12:52.806Z,69.70
2018-11-11T04:15:22.092Z,66.63
2018-11-11T04:17:52.751Z,61.40
2018-11-11T04:20:23.134Z,50.00
2018-11-11T04:22:52.062Z,55.63
2018-11-11T04:25:23.525Z,60.70
2018-11-11T04:27:53.259Z,55.37
2018-11-11T04:30:24.315Z,56.30
2018-11-11T04:32:54.106Z,58.73
2018-11-11T04:35:23.128Z,60.07
2018-11-11T04:37:52.665Z,60.47
2018-11-11T04:40:21.604Z,56.63
2018-11-11T04:42:51.435Z,58.00
2018-11-11T04:45:21.180Z,57.03
2018-11-11T04:47:50.090Z,57.77
2018-11-11T04:50:19.279Z,57.53
2018-11-11T04:52:48.807Z,57.67
2018-11-11T04:55:18.847Z,62.03
2018-11-11T04:57:47.834Z,54.63
2018-11-11T05:00:17.713Z,58.90
2018-11-11T05:02:47.130Z,55.50
2018-11-11T05:05:16.029Z,58.97
2018-11-11T05:07:45.182Z,61.10
2018-11-11T05:10:16.480Z,56.57
2018-11-11T05:12:56.401Z,63.00
2018-11-11T05:15:25.807Z,55.40
2018-11-11T05:17:56.298Z,59.30
2018-11-11T05:20:25.944Z,55.50
2018-11-11T05:22:55.342Z,58.73
2018-11-11T05:25:25.068Z,47.80
2018-11-11T05:27:54.337Z,54.07
2018-11-11T05:30:23.935Z,57.70
2018-11-11T05:32:54.254Z,57.60
2018-11-11T05:35:23.868Z,59.73
2018-11-11T05:37:53.789Z,54.30
2018-11-11T05:40:23.694Z,61.07
2018-11-11T05:42:53.384Z,56.17
2018-11-11T05:45:22.367Z,47.10
2018-11-11T05:47:52.847Z,42.83
2018-11-11T05:50:22.665Z,55.80
2018-11-11T05:52:52.317Z,60.63
2018-11-11T05:55:24.488Z,56.87
2018-11-11T05:57:54.148Z,53.33
2018-11-11T06:00:24.030Z,55.10
2018-11-11T06:02:53.899Z,57.20
2018-11-11T06:05:23.711Z,59.97
2018-11-11T06:07:53.635Z,54.97
2018-11-11T06:10:22.830Z,62.13
2018-11-11T06:12:53.145Z,55.93
2018-11-11T06:15:22.798Z,53.93
2018-11-11T06:17:52.702Z,53.57
2018-11-11T06:20:21.626Z,56.57
2018-11-11T06:22:51.379Z,51.77
2018-11-11T06:25:20.952Z,55.67
2018-11-11T06:27:50.927Z,49.57
2018-11-11T06:30:20.687Z,52.07
2018-11-11T06:32:49.695Z,52.73
2018-11-11T06:35:19.603Z,50.87
2018-11-11T06:37:49.446Z,55.77
2018-11-11T06:40:19.304Z,56.70
2018-11-11T06:42:48.690Z,56.63
2018-11-11T06:45:18.536Z,52.63
2018-11-11T06:47:48.589Z,56.07
2018-11-11T06:50:17.720Z,56.00
2018-11-11T06:52:47.448Z,53.57
2018-11-11T06:55:17.211Z,57.73
2018-11-11T06:57:47.507Z,55.00
2018-11-11T07:00:17.187Z,44.67
2018-11-11T07:03:59.462Z,50.80
2018-11-11T07:06:28.882Z,52.97
2018-11-11T07:08:58.875Z,49.00
2018-11-11T07:11:27.825Z,54.27
2018-11-11T07:13:56.772Z,53.63
2018-11-11T07:16:25.882Z,46.83
2018-11-11T07:18:55.115Z,53.97
2018-11-11T07:21:24.006Z,50.87
2018-11-11T07:23:53.004Z,54.13
2018-11-11T07:26:22.535Z,58.73
2018-11-11T07:28:51.440Z,49.40
2018-11-11T07:31:21.190Z,51.30
2018-11-11T07:33:52.206Z,53.87
2018-11-11T07:36:21.700Z,46.90
2018-11-11T07:38:50.611Z,51.60
2018-11-11T07:41:21.222Z,44.80
2018-11-11T07:43:50.578Z,54.80
2018-11-11T07:46:20.875Z,50.83
2018-11-11T07:48:49.905Z,51.50
2018-11-11T07:51:19.346Z,52.20
2018-11-11T07:54:06.921Z,54.93
2018-11-11T07:56:38.259Z,61.37
2018-11-11T07:59:07.454Z,57.27
2018-11-11T08:01:37.948Z,43.17
2018-11-11T08:04:08.846Z,51.60
2018-11-11T08:06:37.823Z,48.00
2018-11-11T08:09:08.319Z,53.07
2018-11-11T08:12:05.246Z,50.20
2018-11-11T08:14:34.368Z,44.70
2018-11-11T08:17:05.789Z,38.03
2018-11-11T08:19:36.072Z,52.73
2018-11-11T08:22:06.221Z,51.70
2018-11-11T08:24:35.579Z,46.00
2018-11-11T08:27:04.746Z,48.10
2018-11-11T08:29:34.465Z,50.20
2018-11-11T08:32:03.470Z,47.90
2018-11-11T08:34:34.809Z,52.50
2018-11-11T08:37:39.992Z,54.07
2018-11-11T08:40:09.443Z,52.30
2018-11-11T08:42:39.201Z,53.60
2018-11-11T08:45:11.547Z,41.57
2018-11-11T08:47:42.153Z,47.83
2018-11-11T08:50:13.006Z,50.87
2018-11-11T08:52:44.536Z,42.50
2018-11-11T08:55:17.337Z,39.00
2018-11-11T08:57:48.208Z,49.07
2018-11-11T09:00:18.146Z,49.37
2018-11-11T09:02:47.238Z,46.03
2018-11-11T09:05:16.256Z,49.80
2018-11-11T09:07:45.672Z,43.57
2018-11-11T09:10:15.243Z,50.00
2018-11-11T09:12:44.811Z,49.07
2018-11-11T09:15:18.095Z,42.27
2018-11-11T09:17:48.608Z,38.53
2018-11-11T09:20:19.670Z,49.40
2018-11-11T09:22:58.327Z,60.13
2018-11-11T09:25:31.939Z,120.27
2018-11-11T09:28:08.589Z,70.67
2018-11-11T09:30:37.752Z,79.90
2018-11-11T09:33:07.448Z,75.03
2018-11-11T09:35:37.454Z,73.60
2018-11-11T09:38:07.341Z,73.30
2018-11-11T09:40:37.026Z,73.27
2018-11-11T09:43:06.599Z,63.80
2018-11-11T09:45:35.754Z,53.67
2018-11-11T09:48:05.300Z,67.50
2018-11-11T09:50:34.441Z,60.40
2018-11-11T09:53:03.519Z,68.67
2018-11-11T09:55:32.583Z,57.50
2018-11-11T09:58:01.534Z,53.27
2018-11-11T10:00:32.096Z,48.87
2018-11-11T10:03:10.269Z,52.33
2018-11-11T10:05:51.209Z,44.33
2018-11-11T10:08:25.272Z,49.63
2018-11-11T10:11:09.341Z,47.97
2018-11-11T10:13:51.927Z,44.87
2018-11-11T10:16:30.445Z,48.17
2018-11-11T10:19:04.959Z,45.40
2018-11-11T10:21:43.048Z,44.87
2018-11-11T10:24:16.216Z,43.23
2018-11-11T10:26:58.812Z,45.23
2018-11-11T10:30:04.844Z,46.53
2018-11-11T10:32:51.366Z,45.80
2018-11-11T10:35:26.706Z,43.87
2018-11-11T10:38:04.781Z,47.43
2018-11-11T10:40:46.184Z,47.10
2018-11-11T10:43:37.104Z,44.23
2018-11-11T10:46:11.785Z,42.60
2018-11-11T10:48:44.859Z,44.73
2018-11-11T10:51:18.376Z,44.53
2018-11-11T10:53:48.533Z,44.97
2018-11-11T10:56:18.096Z,52.70
2018-11-11T10:58:47.328Z,58.20
2018-11-11T11:01:23.097Z,64.77
2018-11-11T11:03:53.069Z,63.83
2018-11-11T11:06:28.302Z,56.10
2018-11-11T11:09:03.228Z,64.33
2018-11-11T11:11:33.027Z,70.10
2018-11-11T11:14:03.924Z,92.23
2018-11-11T11:16:34.030Z,57.90
2018-11-11T11:19:04.871Z,74.67
2018-11-11T11:21:40.840Z,58.80
2018-11-11T11:24:10.479Z,47.80
2018-11-11T11:26:39.992Z,55.00
2018-11-11T11:29:09.698Z,48.60
2018-11-11T11:31:39.912Z,52.13
2018-11-11T11:34:09.216Z,48.53
2018-11-11T11:36:41.229Z,45.23
2018-11-11T11:39:11.147Z,44.07
2018-11-11T11:41:41.082Z,45.77
2018-11-11T11:44:11.125Z,43.50
2018-11-11T11:46:40.518Z,42.97
2018-11-11T11:49:10.305Z,44.07
2018-11-11T11:51:39.976Z,43.20
2018-11-11T11:54:09.569Z,46.13
2018-11-11T11:56:39.355Z,39.63
2018-11-11T11:59:09.774Z,45.30
2018-11-11T12:01:39.880Z,39.60
2018-11-11T12:04:10.273Z,43.83
2018-11-11T12:06:40.916Z,46.70
2018-11-11T12:09:11.138Z,50.37
2018-11-11T12:11:41.059Z,100.90
2018-11-11T12:14:10.476Z,57.33
2018-11-11T12:16:40.835Z,61.63
2018-11-11T12:19:11.775Z,63.43
2018-11-11T12:21:41.606Z,66.40
2018-11-11T12:24:10.953Z,60.03
2018-11-11T12:26:42.346Z,62.80
2018-11-11T12:29:13.014Z,53.57
2018-11-11T12:31:43.061Z,48.57
2018-11-11T12:34:13.271Z,48.77
2018-11-11T12:36:43.113Z,54.60
2018-11-11T12:39:13.775Z,48.97
2018-11-11T12:41:43.568Z,46.97
2018-11-11T12:44:13.847Z,47.67
2018-11-11T12:46:44.149Z,46.17
2018-11-11T12:49:14.231Z,45.60
2018-11-11T12:51:44.307Z,73.00
2018-11-11T12:54:14.787Z,55.20
2018-11-11T12:56:44.471Z,55.87
2018-11-11T12:59:14.301Z,53.33
2018-11-11T13:01:45.157Z,61.87
2018-11-11T13:04:14.661Z,55.10
2018-11-11T13:06:44.017Z,47.77
2018-11-11T13:09:14.461Z,51.00
2018-11-11T13:11:44.274Z,44.43
2018-11-11T13:14:14.019Z,44.60
2018-11-11T13:16:43.609Z,38.07
2018-11-11T13:19:13.210Z,41.43
2018-11-11T13:21:43.366Z,34.70
2018-11-11T13:24:12.861Z,34.83
2018-11-11T13:26:42.342Z,35.80
2018-11-11T13:29:11.652Z,34.00
2018-11-11T13:31:41.116Z,29.30
2018-11-11T13:34:10.330Z,32.07
2018-11-11T13:36:39.792Z,31.10
2018-11-11T13:39:12.582Z,27.57
2018-11-11T13:41:42.815Z,26.20
2018-11-11T13:44:12.607Z,30.47
2018-11-11T13:46:42.867Z,31.17
2018-11-11T13:49:12.180Z,34.87
2018-11-11T13:51:41.636Z,32.67
2018-11-11T13:54:11.067Z,29.83
2018-11-11T13:56:40.532Z,29.80
2018-11-11T13:59:10.058Z,29.10
2018-11-11T14:01:39.762Z,26.13
2018-11-11T14:04:09.647Z,29.13
2018-11-11T14:06:39.086Z,28.30
2018-11-11T14:09:11.232Z,31.27
2018-11-11T14:11:40.696Z,27.37
2018-11-11T14:14:10.314Z,27.37
2018-11-11T14:16:39.868Z,30.60
2018-11-11T14:19:09.912Z,27.17
2018-11-11T14:21:43.114Z,27.73
2018-11-11T14:24:12.699Z,27.73
2018-11-11T14:26:42.227Z,25.57
2018-11-11T14:29:12.011Z,25.53
2018-11-11T14:31:41.700Z,26.13
2018-11-11T14:34:11.628Z,27.33
2018-11-11T14:36:41.545Z,26.30
2018-11-11T14:39:13.400Z,24.13
2018-11-11T14:41:43.264Z,24.50
2018-11-11T14:44:12.704Z,25.70
2018-11-11T14:46:41.952Z,24.73
2018-11-11T14:49:11.339Z,25.77
2018-11-11T14:51:40.698Z,23.50
2018-11-11T14:54:09.858Z,27.20
2018-11-11T14:56:40.664Z,30.53
2018-11-11T14:59:10.624Z,28.70
2018-11-11T15:01:40.239Z,26.67
2018-11-11T15:04:10.014Z,29.20
2018-11-11T15:06:40.102Z,31.10
2018-11-11T15:09:11.289Z,27.43
2018-11-11T15:11:41.338Z,27.10
2018-11-11T15:14:11.859Z,25.40
2018-11-11T15:16:41.725Z,25.60
2018-11-11T15:19:11.514Z,26.67
2018-11-11T15:21:41.230Z,26.30
2018-11-11T15:24:11.007Z,27.17
2018-11-11T15:26:40.717Z,32.37
2018-11-11T15:29:10.447Z,26.70
2018-11-11T15:31:40.088Z,28.40
2018-11-11T15:34:09.054Z,25.87
2018-11-11T15:36:38.311Z,30.97
2018-11-11T15:39:10.113Z,25.97
2018-11-11T15:41:40.154Z,23.77
2018-11-11T15:44:09.752Z,23.10
2018-11-11T15:46:39.840Z,18.83
2018-11-11T15:49:09.494Z,21.33
2018-11-11T15:51:39.349Z,20.60
2018-11-11T15:54:09.239Z,21.77
2018-11-11T15:56:39.668Z,22.10
2018-11-11T15:59:09.966Z,20.80
2018-11-11T16:01:40.279Z,23.07
2018-11-11T16:04:09.579Z,21.40
2018-11-11T16:06:39.710Z,26.17
2018-11-11T16:09:10.163Z,22.00
2018-11-11T16:11:39.835Z,23.13
2018-11-11T16:14:09.687Z,21.23
2018-11-11T16:16:39.554Z,19.57
2018-11-11T16:19:09.505Z,23.50
2018-11-11T16:21:39.473Z,26.10
2018-11-11T16:24:09.044Z,21.40
2018-11-11T16:26:38.908Z,21.47
2018-11-11T16:29:09.723Z,20.97
2018-11-11T16:31:39.484Z,23.33
2018-11-11T16:34:09.405Z,18.37
2018-11-11T16:36:39.519Z,22.63
2018-11-11T16:39:10.467Z,21.77
2018-11-11T16:41:40.771Z,19.90
2018-11-11T16:44:10.561Z,22.47
2018-11-11T16:46:40.653Z,21.30
2018-11-11T16:49:10.190Z,22.80
2018-11-11T16:51:39.888Z,22.90
2018-11-11T16:54:08.886Z,22.83
2018-11-11T16:56:39.341Z,20.40
2018-11-11T16:59:08.327Z,21.47
2018-11-11T17:01:37.255Z,19.67
2018-11-11T17:04:07.837Z,25.30
2018-11-11T17:06:38.380Z,22.23
2018-11-11T17:09:11.259Z,22.83
2018-11-11T17:11:42.295Z,20.70
2018-11-11T17:14:12.232Z,23.00
2018-11-11T17:16:41.675Z,23.87
2018-11-11T17:19:10.623Z,21.13
2018-11-11T17:21:40.229Z,22.23
2018-11-11T17:24:10.049Z,22.00
2018-11-11T17:26:39.281Z,21.63
2018-11-11T17:29:09.061Z,18.90
2018-11-11T17:31:38.660Z,18.13
2018-11-11T17:34:11.301Z,20.97
2018-11-11T17:36:46.163Z,15.63
2018-11-11T17:39:15.742Z,22.97
2018-11-11T17:41:45.129Z,19.73
2018-11-11T17:44:15.110Z,16.40
2018-11-11T17:46:44.363Z,16.50
2018-11-11T17:49:14.174Z,26.47
2018-11-11T17:51:43.096Z,18.60
2018-11-11T17:54:12.959Z,16.20
2018-11-11T17:56:42.476Z,16.93
2018-11-11T17:59:12.878Z,19.00
2018-11-11T18:01:42.138Z,17.90
2018-11-11T18:04:12.505Z,17.73
2018-11-11T18:06:41.782Z,15.03
2018-11-11T18:09:11.283Z,18.53
2018-11-11T18:11:40.980Z,18.87
2018-11-11T18:14:13.015Z,17.80
2018-11-11T18:16:42.303Z,18.27
2018-11-11T18:19:12.061Z,18.27
2018-11-11T18:21:41.758Z,18.17
2018-11-11T18:24:12.456Z,17.60
2018-11-11T18:26:42.748Z,17.17
2018-11-11T18:29:11.831Z,17.60
2018-11-11T18:31:41.689Z,17.20
2018-11-11T18:34:11.443Z,18.37
2018-11-11T18:36:41.217Z,18.57
2018-11-11T18:39:12.536Z,19.60
2018-11-11T18:41:42.547Z,19.03
2018-11-11T18:44:12.016Z,16.03
2018-11-11T18:46:41.658Z,18.73
2018-11-11T18:49:11.468Z,21.80
2018-11-11T18:51:41.426Z,19.57
2018-11-11T18:54:10.503Z,15.93
2018-11-11T18:56:43.371Z,14.07
2018-11-11T18:59:12.432Z,13.27
2018-11-11T19:01:42.071Z,16.87
2018-11-11T19:04:12.057Z,18.93
2018-11-11T19:06:41.658Z,15.37
2018-11-11T19:09:12.847Z,15.00
2018-11-11T19:11:48.562Z,14.70
2018-11-11T19:14:18.142Z,16.40
2018-11-11T19:16:47.402Z,18.00
2018-11-11T19:19:17.274Z,14.90
2018-11-11T19:21:47.109Z,16.23
2018-11-11T19:24:17.584Z,16.73
2018-11-11T19:26:46.663Z,16.10
2018-11-11T19:29:16.715Z,15.90
2018-11-11T19:31:46.521Z,13.73
2018-11-11T19:34:15.534Z,16.43
2018-11-11T19:36:45.033Z,15.60
2018-11-11T19:39:14.511Z,15.40
2018-11-11T19:41:43.718Z,20.83
2018-11-11T19:44:12.665Z,13.83
2018-11-11T19:46:42.042Z,14.60
2018-11-11T19:49:11.350Z,10.40
2018-11-11T19:51:40.989Z,14.10
2018-11-11T19:54:11.119Z,15.80
2018-11-11T19:56:40.157Z,15.80
2018-11-11T19:59:09.060Z,14.30
2018-11-11T20:01:38.639Z,16.27
2018-11-11T20:04:08.945Z,12.50
2018-11-11T20:06:38.240Z,15.07
2018-11-11T20:09:10.151Z,12.03
2018-11-11T20:11:39.364Z,16.57
2018-11-11T20:14:09.120Z,14.80
2018-11-11T20:16:39.405Z,13.43
2018-11-11T20:19:09.072Z,13.37
2018-11-11T20:21:38.897Z,13.33
2018-11-11T20:24:08.801Z,16.70
2018-11-11T20:26:38.274Z,14.93
2018-11-11T20:29:07.568Z,16.43
2018-11-11T20:31:37.200Z,14.73
2018-11-11T20:34:06.884Z,13.07
2018-11-11T20:36:36.473Z,14.77
2018-11-11T20:39:10.663Z,17.03
2018-11-11T20:41:40.335Z,15.00
2018-11-11T20:44:12.021Z,15.50
2018-11-11T20:46:41.600Z,11.57
2018-11-11T20:49:11.093Z,13.30
2018-11-11T20:51:47.402Z,16.13
2018-11-11T20:54:16.948Z,12.30
2018-11-11T20:56:46.598Z,14.20
2018-11-11T20:59:16.610Z,15.53
2018-11-11T21:01:46.658Z,12.73
2018-11-11T21:04:16.058Z,13.80
2018-11-11T21:06:45.160Z,14.00
2018-11-11T21:09:15.420Z,15.80
2018-11-11T21:11:44.619Z,13.43
2018-11-11T21:14:14.423Z,13.07
2018-11-11T21:16:44.510Z,12.50
2018-11-11T21:19:13.545Z,15.03
2018-11-11T21:21:43.371Z,17.40
2018-11-11T21:24:12.750Z,16.23
2018-11-11T21:26:41.651Z,12.80
2018-11-11T21:29:11.288Z,13.37
2018-11-11T21:31:40.610Z,15.03
2018-11-11T21:34:10.181Z,13.00
2018-11-11T21:36:39.435Z,11.10
2018-11-11T21:39:10.097Z,12.07
2018-11-11T21:41:39.806Z,13.20
2018-11-11T21:44:11.397Z,13.40
2018-11-11T21:46:41.139Z,13.20
2018-11-11T21:49:10.068Z,13.97
2018-11-11T21:51:39.056Z,13.20
2018-11-11T21:54:08.260Z,14.27
2018-11-11T21:56:37.447Z,15.33
2018-11-11T21:59:06.359Z,16.40
2018-11-11T22:01:35.556Z,19.87
2018-11-11T22:04:04.837Z,14.23
2018-11-11T22:06:34.070Z,14.97
2018-11-11T22:09:03.098Z,18.47
2018-11-11T22:11:32.269Z,16.57
2018-11-11T22:14:01.629Z,14.83
2018-11-11T22:16:31.204Z,18.93
2018-11-11T22:19:00.996Z,14.80
2018-11-11T22:21:30.922Z,16.67
2018-11-11T22:24:00.531Z,16.07
2018-11-11T22:26:29.975Z,16.27
2018-11-11T22:28:59.374Z,15.13
2018-11-11T22:31:28.447Z,16.07
2018-11-11T22:33:58.466Z,12.53
2018-11-11T22:36:28.156Z,16.20
2018-11-11T22:38:57.684Z,14.20
2018-11-11T22:41:28.053Z,16.17
2018-11-11T22:43:58.388Z,17.33
2018-11-11T22:46:28.075Z,15.33
2018-11-11T22:48:57.965Z,15.77
2018-11-11T22:51:27.547Z,16.37
2018-11-11T22:53:57.695Z,14.97
2018-11-11T22:56:27.426Z,15.77
2018-11-11T22:58:57.129Z,15.63
2018-11-11T23:01:45.561Z,16.13
2018-11-11T23:04:18.229Z,16.30
2018-11-11T23:06:48.000Z,16.63
2018-11-11T23:09:17.827Z,17.70
2018-11-11T23:11:48.173Z,17.50
2018-11-11T23:14:18.015Z,13.17
2018-11-11T23:16:47.811Z,15.27
2018-11-11T23:19:17.590Z,13.50
2018-11-11T23:21:49.024Z,16.33
2018-11-11T23:24:19.003Z,14.67
2018-11-11T23:26:48.124Z,16.63
2018-11-11T23:29:17.351Z,17.63
2018-11-11T23:31:46.530Z,18.00
2018-11-11T23:34:17.530Z,16.70
2018-11-11T23:36:46.771Z,18.17
2018-11-11T23:39:16.337Z,18.97
2018-11-11T23:41:46.250Z,17.70
2018-11-11T23:44:31.192Z,20.73
2018-11-11T23:47:04.669Z,19.07
2018-11-11T23:49:34.649Z,18.97
2018-11-11T23:52:05.264Z,17.40
2018-11-11T23:54:35.477Z,21.43
2018-11-11T23:57:05.823Z,14.30
2018-11-11T23:59:35.187Z,17.83
